createdAt,value
2017-03-29T00:01:17.944Z,0
2017-03-29T00:02:17.876Z,0
2017-03-29T00:03:17.812Z,0
2017-03-29T00:04:17.753Z,0
2017-03-29T00:05:17.689Z,0
2017-03-29T00:06:17.627Z,0
2017-03-29T00:07:17.562Z,0
2017-03-29T00:08:17.506Z,0
2017-03-29T00:09:17.446Z,0
2017-03-29T00:10:17.381Z,0
2017-03-29T00:11:17.312Z,0
2017-03-29T00:12:17.255Z,0
2017-03-29T00:13:17.188Z,0
2017-03-29T00:14:16.819Z,0
2017-03-29T00:15:17.067Z,0
2017-03-29T00:16:17.000Z,0
2017-03-29T00:17:16.946Z,0
2017-03-29T00:18:16.875Z,0
2017-03-29T00:19:16.815Z,0
2017-03-29T00:20:16.449Z,0
2017-03-29T00:21:16.697Z,0
2017-03-29T00:22:17.019Z,0
2017-03-29T00:23:16.567Z,0
2017-03-29T00:24:16.504Z,0
2017-03-29T00:25:16.441Z,0
2017-03-29T00:26:16.380Z,0
2017-03-29T00:27:16.323Z,0
2017-03-29T00:28:15.944Z,0
2017-03-29T00:29:16.195Z,0
2017-03-29T00:30:16.127Z,0
2017-03-29T00:31:16.065Z,0
2017-03-29T00:32:16.016Z,8
2017-03-29T00:33:16.320Z,4
2017-03-29T00:34:15.880Z,4
2017-03-29T00:35:15.820Z,84
2017-03-29T00:36:15.756Z,4
2017-03-29T00:37:15.700Z,4
2017-03-29T00:38:15.640Z,4
2017-03-29T00:39:15.572Z,4
2017-03-29T00:40:15.509Z,4
2017-03-29T00:41:15.476Z,4
2017-03-29T00:42:15.386Z,4
2017-03-29T00:43:15.318Z,4
2017-03-29T00:44:15.255Z,4
2017-03-29T00:45:15.236Z,4
2017-03-29T00:46:15.138Z,4
2017-03-29T00:47:15.071Z,4
2017-03-29T00:48:15.005Z,4
2017-03-29T00:49:14.943Z,4
2017-03-29T00:50:14.887Z,4
2017-03-29T00:51:14.820Z,4
2017-03-29T00:52:14.755Z,4
2017-03-29T00:53:14.702Z,4
2017-03-29T00:54:14.326Z,4
2017-03-29T00:55:14.576Z,4
2017-03-29T00:56:14.508Z,4
2017-03-29T00:57:13.825Z,4
2017-03-29T00:58:14.077Z,4
2017-03-29T00:59:14.321Z,4
2017-03-29T01:00:14.261Z,4
2017-03-29T01:01:14.203Z,4
2017-03-29T01:02:13.823Z,4
2017-03-29T01:03:14.074Z,4
2017-03-29T01:04:14.009Z,4
2017-03-29T01:05:13.951Z,4
2017-03-29T01:06:13.880Z,4
2017-03-29T01:07:13.823Z,4
2017-03-29T01:08:13.758Z,4
2017-03-29T01:09:13.390Z,4
2017-03-29T01:10:13.344Z,4
2017-03-29T01:11:13.574Z,4
2017-03-29T01:12:13.510Z,4
2017-03-29T01:13:13.443Z,4
2017-03-29T01:14:13.383Z,4
2017-03-29T01:15:13.348Z,4
2017-03-29T01:16:13.260Z,4
2017-03-29T01:17:13.569Z,4
2017-03-29T01:18:12.826Z,4
2017-03-29T01:19:13.074Z,4
2017-03-29T01:20:12.702Z,4
2017-03-29T01:21:12.642Z,4
2017-03-29T01:22:12.577Z,4
2017-03-29T01:23:12.823Z,4
2017-03-29T01:24:12.760Z,4
2017-03-29T01:25:12.701Z,4
2017-03-29T01:26:12.328Z,4
2017-03-29T01:27:12.569Z,4
2017-03-29T01:28:12.520Z,4
2017-03-29T01:29:12.448Z,4
2017-03-29T01:30:12.388Z,4
2017-03-29T01:31:12.324Z,4
2017-03-29T01:32:12.264Z,4
2017-03-29T01:33:12.204Z,4
2017-03-29T01:34:11.829Z,4
2017-03-29T01:35:11.765Z,4
2017-03-29T01:36:11.399Z,4
2017-03-29T01:37:11.953Z,4
2017-03-29T01:38:11.903Z,4
2017-03-29T01:39:11.823Z,4
2017-03-29T01:40:11.769Z,4
2017-03-29T01:41:11.701Z,4
2017-03-29T01:42:11.668Z,4
2017-03-29T01:43:11.575Z,4
2017-03-29T01:44:11.508Z,4
2017-03-29T01:45:11.449Z,4
2017-03-29T01:46:11.399Z,4
2017-03-29T01:47:11.322Z,4
2017-03-29T01:48:11.266Z,4
2017-03-29T01:49:11.199Z,4
2017-03-29T01:50:10.831Z,4
2017-03-29T01:51:11.088Z,4
2017-03-29T01:52:11.009Z,4
2017-03-29T01:53:10.950Z,4
2017-03-29T01:54:10.890Z,4
2017-03-29T01:55:10.824Z,4
2017-03-29T01:56:10.766Z,4
2017-03-29T01:57:10.705Z,4
2017-03-29T01:58:10.638Z,4
2017-03-29T01:59:10.267Z,4
2017-03-29T02:00:10.205Z,4
2017-03-29T02:01:10.447Z,4
2017-03-29T02:02:10.387Z,4
2017-03-29T02:03:10.327Z,4
2017-03-29T02:04:10.263Z,4
2017-03-29T02:05:09.890Z,4
2017-03-29T02:06:10.135Z,4
2017-03-29T02:07:10.075Z,4
2017-03-29T02:08:09.707Z,4
2017-03-29T02:09:09.973Z,4
2017-03-29T02:10:09.890Z,4
2017-03-29T02:11:09.823Z,4
2017-03-29T02:12:09.762Z,4
2017-03-29T02:13:09.692Z,4
2017-03-29T02:14:09.635Z,4
2017-03-29T02:15:09.575Z,4
2017-03-29T02:16:09.533Z,4
2017-03-29T02:17:09.450Z,4
2017-03-29T02:18:09.395Z,4
2017-03-29T02:19:09.322Z,4
2017-03-29T02:20:09.257Z,4
2017-03-29T02:21:08.884Z,4
2017-03-29T02:22:08.826Z,4
2017-03-29T02:23:08.761Z,4
2017-03-29T02:24:08.701Z,4
2017-03-29T02:25:08.670Z,4
2017-03-29T02:26:08.573Z,4
2017-03-29T02:27:08.825Z,4
2017-03-29T02:28:09.131Z,4
2017-03-29T02:29:08.699Z,4
2017-03-29T02:30:08.636Z,4
2017-03-29T02:31:08.577Z,4
2017-03-29T02:32:08.530Z,4
2017-03-29T02:33:08.479Z,4
2017-03-29T02:34:08.409Z,4
2017-03-29T02:35:07.699Z,4
2017-03-29T02:36:07.954Z,4
2017-03-29T02:37:08.198Z,4
2017-03-29T02:38:07.823Z,4
2017-03-29T02:39:08.094Z,4
2017-03-29T02:40:08.006Z,4
2017-03-29T02:41:07.945Z,4
2017-03-29T02:42:07.880Z,4
2017-03-29T02:43:07.513Z,4
2017-03-29T02:44:07.763Z,4
2017-03-29T02:45:07.385Z,4
2017-03-29T02:46:07.636Z,4
2017-03-29T02:47:07.575Z,4
2017-03-29T02:48:07.194Z,4
2017-03-29T02:49:07.444Z,4
2017-03-29T02:50:21.958Z,4
2017-03-29T02:51:07.325Z,4
2017-03-29T02:52:07.259Z,4
2017-03-29T02:53:07.194Z,4
2017-03-29T02:54:07.136Z,4
2017-03-29T02:55:07.074Z,4
2017-03-29T02:56:07.004Z,4
2017-03-29T02:57:06.628Z,4
2017-03-29T02:58:06.566Z,4
2017-03-29T02:59:06.851Z,4
2017-03-29T03:00:06.762Z,4
2017-03-29T03:01:06.690Z,4
2017-03-29T03:02:06.324Z,4
2017-03-29T03:03:06.569Z,4
2017-03-29T03:04:06.196Z,4
2017-03-29T03:05:06.446Z,4
2017-03-29T03:06:06.386Z,4
2017-03-29T03:07:06.013Z,4
2017-03-29T03:08:06.252Z,4
2017-03-29T03:09:06.197Z,4
2017-03-29T03:10:05.819Z,4
2017-03-29T03:11:06.065Z,4
2017-03-29T03:12:06.008Z,4
2017-03-29T03:13:05.944Z,4
2017-03-29T03:14:05.873Z,4
2017-03-29T03:15:05.850Z,4
2017-03-29T03:16:06.121Z,0
2017-03-29T03:17:05.385Z,0
2017-03-29T03:18:05.630Z,0
2017-03-29T03:19:05.565Z,0
2017-03-29T03:20:05.195Z,0
2017-03-29T03:21:05.437Z,0
2017-03-29T03:22:05.382Z,0
2017-03-29T03:23:05.317Z,0
2017-03-29T03:24:05.251Z,0
2017-03-29T03:25:04.887Z,0
2017-03-29T03:26:05.130Z,0
2017-03-29T03:27:05.065Z,0
2017-03-29T03:28:05.000Z,0
2017-03-29T03:29:04.941Z,0
2017-03-29T03:30:04.889Z,0
2017-03-29T03:31:04.808Z,0
2017-03-29T03:32:04.751Z,0
2017-03-29T03:33:04.687Z,0
2017-03-29T03:34:04.315Z,0
2017-03-29T03:35:04.257Z,0
2017-03-29T03:36:04.504Z,0
2017-03-29T03:37:04.126Z,0
2017-03-29T03:38:04.376Z,0
2017-03-29T03:39:04.314Z,0
2017-03-29T03:40:04.251Z,0
2017-03-29T03:41:04.187Z,0
2017-03-29T03:42:04.120Z,0
2017-03-29T03:43:04.427Z,0
2017-03-29T03:44:04.021Z,0
2017-03-29T03:45:03.936Z,0
2017-03-29T03:46:03.880Z,0
2017-03-29T03:47:03.812Z,0
2017-03-29T03:48:03.435Z,0
2017-03-29T03:49:03.689Z,0
2017-03-29T03:50:03.646Z,0
2017-03-29T03:51:03.561Z,0
2017-03-29T03:52:03.191Z,0
2017-03-29T03:53:03.430Z,0
2017-03-29T03:54:03.366Z,0
2017-03-29T03:55:03.104Z,0
2017-03-29T03:56:03.249Z,0
2017-03-29T03:57:03.182Z,0
2017-03-29T03:58:03.117Z,0
2017-03-29T03:59:02.756Z,0
2017-03-29T04:00:03.010Z,0
2017-03-29T04:01:02.931Z,0
2017-03-29T04:02:02.898Z,0
2017-03-29T04:03:02.805Z,0
2017-03-29T04:04:02.749Z,0
2017-03-29T04:05:02.680Z,0
2017-03-29T04:06:02.657Z,0
2017-03-29T04:07:01.981Z,0
2017-03-29T04:08:02.502Z,0
2017-03-29T04:09:02.433Z,0
2017-03-29T04:10:02.368Z,0
2017-03-29T04:11:02.306Z,0
2017-03-29T04:12:02.242Z,0
2017-03-29T04:13:02.177Z,0
2017-03-29T04:14:02.117Z,0
2017-03-29T04:15:02.806Z,0
2017-03-29T04:16:01.989Z,0
2017-03-29T04:17:01.933Z,0
2017-03-29T04:18:01.866Z,0
2017-03-29T04:19:01.800Z,0
2017-03-29T04:20:01.736Z,0
2017-03-29T04:21:01.672Z,0
2017-03-29T04:22:01.614Z,0
2017-03-29T04:23:01.551Z,0
2017-03-29T04:24:01.498Z,0
2017-03-29T04:25:01.432Z,0
2017-03-29T04:26:01.361Z,0
2017-03-29T04:27:01.308Z,0
2017-03-29T04:28:01.241Z,0
2017-03-29T04:29:01.177Z,0
2017-03-29T04:30:01.114Z,0
2017-03-29T04:31:01.049Z,0
2017-03-29T04:32:00.364Z,0
2017-03-29T04:33:00.928Z,0
2017-03-29T04:34:00.861Z,0
2017-03-29T04:35:00.795Z,0
2017-03-29T04:36:00.739Z,0
2017-03-29T04:37:00.690Z,0
2017-03-29T04:38:00.610Z,0
2017-03-29T04:39:00.549Z,0
2017-03-29T04:40:00.495Z,0
2017-03-29T04:41:00.453Z,0
2017-03-29T04:42:00.386Z,0
2017-03-29T04:43:00.292Z,0
2017-03-29T04:44:00.230Z,0
2017-03-29T04:45:00.170Z,0
2017-03-29T04:46:00.110Z,0
2017-03-29T04:47:00.044Z,0
2017-03-29T04:47:59.985Z,0
2017-03-29T04:49:00.289Z,0
2017-03-29T04:49:59.855Z,0
2017-03-29T04:50:59.792Z,0
2017-03-29T04:51:59.727Z,0
2017-03-29T04:52:59.668Z,0
2017-03-29T04:53:59.603Z,0
2017-03-29T04:54:59.540Z,0
2017-03-29T04:55:59.478Z,0
2017-03-29T04:56:59.413Z,0
2017-03-29T04:57:59.350Z,0
2017-03-29T04:58:59.297Z,0
2017-03-29T04:59:59.226Z,0
2017-03-29T05:00:59.166Z,0
2017-03-29T05:01:59.100Z,0
2017-03-29T05:02:59.046Z,0
2017-03-29T05:03:58.664Z,0
2017-03-29T05:04:58.916Z,4
2017-03-29T05:05:58.854Z,4
2017-03-29T05:06:58.785Z,4
2017-03-29T05:07:58.717Z,4
2017-03-29T05:08:58.659Z,4
2017-03-29T05:09:58.595Z,0
2017-03-29T05:10:58.531Z,0
2017-03-29T05:11:58.470Z,0
2017-03-29T05:12:58.412Z,0
2017-03-29T05:13:58.349Z,0
2017-03-29T05:14:58.277Z,0
2017-03-29T05:15:58.223Z,0
2017-03-29T05:16:58.157Z,0
2017-03-29T05:17:58.089Z,0
2017-03-29T05:18:58.029Z,0
2017-03-29T05:19:57.656Z,4
2017-03-29T05:20:57.908Z,4
2017-03-29T05:21:57.838Z,4
2017-03-29T05:22:57.787Z,4
2017-03-29T05:23:57.715Z,4
2017-03-29T05:24:57.343Z,4
2017-03-29T05:25:57.590Z,4
2017-03-29T05:26:57.213Z,4
2017-03-29T05:27:57.460Z,4
2017-03-29T05:28:56.778Z,4
2017-03-29T05:29:57.333Z,4
2017-03-29T05:30:56.962Z,4
2017-03-29T05:31:57.214Z,4
2017-03-29T05:32:57.143Z,4
2017-03-29T05:33:57.086Z,0
2017-03-29T05:34:56.716Z,0
2017-03-29T05:35:56.955Z,4
2017-03-29T05:36:56.897Z,4
2017-03-29T05:37:56.522Z,4
2017-03-29T05:38:56.452Z,4
2017-03-29T05:39:56.393Z,4
2017-03-29T05:40:56.333Z,4
2017-03-29T05:41:56.579Z,4
2017-03-29T05:42:56.514Z,4
2017-03-29T05:43:56.449Z,4
2017-03-29T05:44:56.081Z,4
2017-03-29T05:45:56.331Z,4
2017-03-29T05:46:56.270Z,4
2017-03-29T05:47:56.201Z,4
2017-03-29T05:48:55.831Z,4
2017-03-29T05:49:56.076Z,4
2017-03-29T05:50:56.011Z,4
2017-03-29T05:51:55.949Z,4
2017-03-29T05:52:55.265Z,4
2017-03-29T05:53:55.829Z,4
2017-03-29T05:54:55.462Z,4
2017-03-29T05:55:55.698Z,4
2017-03-29T05:56:55.324Z,4
2017-03-29T05:57:55.264Z,4
2017-03-29T05:58:55.519Z,4
2017-03-29T05:59:54.829Z,4
2017-03-29T06:00:55.105Z,4
2017-03-29T06:01:55.329Z,8
2017-03-29T06:02:55.260Z,8
2017-03-29T06:03:55.195Z,8
2017-03-29T06:04:55.135Z,8
2017-03-29T06:05:54.767Z,8
2017-03-29T06:06:55.006Z,8
2017-03-29T06:07:54.944Z,8
2017-03-29T06:08:54.566Z,8
2017-03-29T06:09:54.821Z,4
2017-03-29T06:10:54.751Z,8
2017-03-29T06:11:54.696Z,8
2017-03-29T06:12:54.625Z,8
2017-03-29T06:13:54.263Z,12
2017-03-29T06:14:54.514Z,8
2017-03-29T06:15:54.550Z,12
2017-03-29T06:16:54.401Z,8
2017-03-29T06:17:54.326Z,16
2017-03-29T06:18:53.937Z,20
2017-03-29T06:19:54.190Z,24
2017-03-29T06:20:54.470Z,20
2017-03-29T06:21:53.756Z,20
2017-03-29T06:22:53.994Z,20
2017-03-29T06:23:53.931Z,16
2017-03-29T06:24:53.876Z,12
2017-03-29T06:25:53.973Z,12
2017-03-29T06:26:53.747Z,12
2017-03-29T06:27:53.682Z,28
2017-03-29T06:28:53.307Z,36
2017-03-29T06:29:53.553Z,36
2017-03-29T06:30:53.189Z,40
2017-03-29T06:31:53.431Z,40
2017-03-29T06:32:53.372Z,44
2017-03-29T06:33:52.997Z,44
2017-03-29T06:34:52.620Z,44
2017-03-29T06:35:53.172Z,48
2017-03-29T06:36:53.116Z,56
2017-03-29T06:37:53.048Z,60
2017-03-29T06:38:52.990Z,36
2017-03-29T06:39:52.928Z,44
2017-03-29T06:40:52.870Z,64
2017-03-29T06:41:52.798Z,64
2017-03-29T06:42:52.428Z,60
2017-03-29T06:43:52.678Z,44
2017-03-29T06:44:52.609Z,32
2017-03-29T06:45:52.549Z,40
2017-03-29T06:46:52.254Z,24
2017-03-29T06:47:52.465Z,28
2017-03-29T06:48:52.365Z,24
2017-03-29T06:49:52.299Z,24
2017-03-29T06:50:52.246Z,36
2017-03-29T06:51:52.170Z,20
2017-03-29T06:52:52.104Z,20
2017-03-29T06:53:52.046Z,20
2017-03-29T06:54:51.984Z,20
2017-03-29T06:55:51.628Z,20
2017-03-29T06:56:51.554Z,20
2017-03-29T06:57:51.803Z,20
2017-03-29T06:58:51.729Z,24
2017-03-29T06:59:51.669Z,24
2017-03-29T07:00:51.610Z,20
2017-03-29T07:01:51.547Z,24
2017-03-29T07:02:51.482Z,24
2017-03-29T07:03:51.667Z,24
2017-03-29T07:04:51.813Z,24
2017-03-29T07:05:51.297Z,24
2017-03-29T07:06:51.226Z,24
2017-03-29T07:07:51.162Z,24
2017-03-29T07:08:51.098Z,20
2017-03-29T07:09:51.038Z,24
2017-03-29T07:10:50.976Z,20
2017-03-29T07:11:50.909Z,16
2017-03-29T07:12:50.853Z,20
2017-03-29T07:13:50.478Z,20
2017-03-29T07:14:50.737Z,20
2017-03-29T07:15:50.688Z,20
2017-03-29T07:16:50.597Z,20
2017-03-29T07:17:50.279Z,20
2017-03-29T07:18:50.514Z,16
2017-03-29T07:19:50.444Z,16
2017-03-29T07:20:50.383Z,16
2017-03-29T07:21:50.288Z,16
2017-03-29T07:22:49.932Z,16
2017-03-29T07:23:49.921Z,16
2017-03-29T07:24:50.099Z,16
2017-03-29T07:25:49.831Z,20
2017-03-29T07:26:50.010Z,20
2017-03-29T07:27:49.594Z,20
2017-03-29T07:28:49.838Z,20
2017-03-29T07:29:49.785Z,20
2017-03-29T07:30:49.775Z,24
2017-03-29T07:31:49.673Z,24
2017-03-29T07:32:49.587Z,36
2017-03-29T07:33:49.528Z,56
2017-03-29T07:34:49.481Z,36
2017-03-29T07:35:49.397Z,36
2017-03-29T07:36:49.352Z,28
2017-03-29T07:37:48.965Z,24
2017-03-29T07:38:49.268Z,20
2017-03-29T07:39:49.188Z,24
2017-03-29T07:40:48.793Z,24
2017-03-29T07:41:49.049Z,20
2017-03-29T07:42:48.972Z,20
2017-03-29T07:43:48.672Z,24
2017-03-29T07:44:48.887Z,24
2017-03-29T07:45:48.537Z,20
2017-03-29T07:46:48.845Z,20
2017-03-29T07:47:48.948Z,20
2017-03-29T07:48:48.302Z,20
2017-03-29T07:49:48.307Z,20
2017-03-29T07:50:48.535Z,20
2017-03-29T07:51:48.128Z,16
2017-03-29T07:52:48.297Z,16
2017-03-29T07:53:48.104Z,16
2017-03-29T07:54:47.992Z,16
2017-03-29T07:55:48.149Z,16
2017-03-29T07:56:47.777Z,20
2017-03-29T07:57:48.020Z,20
2017-03-29T07:58:47.675Z,20
2017-03-29T07:59:47.899Z,16
2017-03-29T08:00:47.858Z,20
2017-03-29T08:01:47.753Z,20
2017-03-29T08:02:47.703Z,20
2017-03-29T08:03:47.633Z,16
2017-03-29T08:04:47.590Z,20
2017-03-29T08:05:47.232Z,20
2017-03-29T08:06:47.458Z,20
2017-03-29T08:07:47.381Z,20
2017-03-29T08:08:47.363Z,20
2017-03-29T08:09:47.299Z,20
2017-03-29T08:10:47.215Z,20
2017-03-29T08:11:47.144Z,20
2017-03-29T08:12:47.080Z,20
2017-03-29T08:13:47.054Z,20
2017-03-29T08:14:47.319Z,20
2017-03-29T08:15:46.880Z,16
2017-03-29T08:16:46.818Z,16
2017-03-29T08:17:46.762Z,16
2017-03-29T08:18:46.696Z,16
2017-03-29T08:19:46.630Z,16
2017-03-29T08:20:46.928Z,20
2017-03-29T08:21:46.589Z,16
2017-03-29T08:22:45.865Z,16
2017-03-29T08:23:46.155Z,16
2017-03-29T08:24:46.357Z,16
2017-03-29T08:25:46.382Z,16
2017-03-29T08:26:46.488Z,16
2017-03-29T08:27:46.195Z,16
2017-03-29T08:28:45.804Z,16
2017-03-29T08:29:46.027Z,16
2017-03-29T08:30:45.753Z,16
2017-03-29T08:31:45.934Z,20
2017-03-29T08:32:45.567Z,20
2017-03-29T08:33:45.851Z,20
2017-03-29T08:34:45.798Z,20
2017-03-29T08:35:45.759Z,20
2017-03-29T08:36:45.595Z,20
2017-03-29T08:37:45.812Z,20
2017-03-29T08:38:45.160Z,20
2017-03-29T08:39:45.509Z,20
2017-03-29T08:40:45.437Z,20
2017-03-29T08:41:44.952Z,24
2017-03-29T08:42:45.330Z,24
2017-03-29T08:43:44.862Z,24
2017-03-29T08:44:44.748Z,24
2017-03-29T08:45:45.010Z,24
2017-03-29T08:46:44.964Z,24
2017-03-29T08:47:44.580Z,24
2017-03-29T08:48:44.844Z,24
2017-03-29T08:49:44.794Z,24
2017-03-29T08:50:44.684Z,24
2017-03-29T08:51:44.314Z,24
2017-03-29T08:52:44.647Z,24
2017-03-29T08:53:44.556Z,24
2017-03-29T08:54:44.571Z,24
2017-03-29T08:55:44.435Z,24
2017-03-29T08:56:44.314Z,24
2017-03-29T08:57:44.279Z,24
2017-03-29T08:58:44.243Z,24
2017-03-29T08:59:44.200Z,96
2017-03-29T09:00:43.847Z,128
2017-03-29T09:01:44.019Z,144
2017-03-29T09:02:43.924Z,148
2017-03-29T09:03:43.856Z,148
2017-03-29T09:04:43.793Z,156
2017-03-29T09:05:43.731Z,156
2017-03-29T09:06:43.361Z,148
2017-03-29T09:07:43.608Z,144
2017-03-29T09:08:43.330Z,148
2017-03-29T09:09:43.519Z,144
2017-03-29T09:10:43.188Z,144
2017-03-29T09:11:43.370Z,148
2017-03-29T09:12:43.389Z,160
2017-03-29T09:13:43.247Z,156
2017-03-29T09:14:43.167Z,156
2017-03-29T09:15:43.108Z,156
2017-03-29T09:16:43.045Z,156
2017-03-29T09:17:42.980Z,148
2017-03-29T09:18:42.919Z,156
2017-03-29T09:19:42.544Z,152
2017-03-29T09:20:42.817Z,152
2017-03-29T09:21:42.787Z,152
2017-03-29T09:22:42.377Z,152
2017-03-29T09:23:42.704Z,148
2017-03-29T09:24:42.322Z,148
2017-03-29T09:25:42.505Z,152
2017-03-29T09:26:42.627Z,148
2017-03-29T09:27:41.832Z,144
2017-03-29T09:28:42.882Z,144
2017-03-29T09:29:42.475Z,140
2017-03-29T09:30:42.369Z,132
2017-03-29T09:31:42.165Z,136
2017-03-29T09:32:42.113Z,132
2017-03-29T09:33:42.268Z,140
2017-03-29T09:34:42.047Z,140
2017-03-29T09:35:41.573Z,144
2017-03-29T09:36:41.853Z,152
2017-03-29T09:37:41.549Z,152
2017-03-29T09:38:42.018Z,144
2017-03-29T09:39:41.718Z,140
2017-03-29T09:40:41.679Z,140
2017-03-29T09:41:41.529Z,140
2017-03-29T09:42:41.482Z,140
2017-03-29T09:43:41.436Z,140
2017-03-29T09:44:41.699Z,136
2017-03-29T09:45:42.070Z,140
2017-03-29T09:46:41.220Z,140
2017-03-29T09:47:41.246Z,144
2017-03-29T09:48:41.478Z,148
2017-03-29T09:49:40.740Z,140
2017-03-29T09:50:40.377Z,140
2017-03-29T09:51:40.889Z,136
2017-03-29T09:52:40.838Z,20
2017-03-29T09:53:40.917Z,16
2017-03-29T09:54:40.846Z,16
2017-03-29T09:55:40.438Z,20
2017-03-29T09:56:40.784Z,20
2017-03-29T09:57:40.538Z,20
2017-03-29T09:58:40.455Z,16
2017-03-29T09:59:40.424Z,16
2017-03-29T10:00:40.463Z,20
2017-03-29T10:01:40.298Z,16
2017-03-29T10:02:40.371Z,16
2017-03-29T10:03:40.319Z,20
2017-03-29T10:04:40.204Z,20
2017-03-29T10:05:40.241Z,20
2017-03-29T10:06:40.131Z,24
2017-03-29T10:07:40.142Z,24
2017-03-29T10:08:39.695Z,24
2017-03-29T10:09:39.529Z,24
2017-03-29T10:10:40.126Z,20
2017-03-29T10:11:39.883Z,16
2017-03-29T10:12:39.668Z,16
2017-03-29T10:13:39.738Z,20
2017-03-29T10:14:39.557Z,20
2017-03-29T10:15:39.542Z,20
2017-03-29T10:16:39.511Z,20
2017-03-29T10:17:39.454Z,20
2017-03-29T10:18:39.458Z,20
2017-03-29T10:19:39.368Z,24
2017-03-29T10:20:39.288Z,24
2017-03-29T10:21:38.864Z,24
2017-03-29T10:22:39.158Z,20
2017-03-29T10:23:38.920Z,20
2017-03-29T10:24:38.532Z,20
2017-03-29T10:25:38.806Z,20
2017-03-29T10:26:38.793Z,20
2017-03-29T10:27:38.438Z,20
2017-03-29T10:28:38.664Z,24
2017-03-29T10:29:38.729Z,24
2017-03-29T10:30:38.632Z,28
2017-03-29T10:31:38.474Z,24
2017-03-29T10:32:38.159Z,24
2017-03-29T10:33:37.973Z,24
2017-03-29T10:34:38.375Z,20
2017-03-29T10:35:38.255Z,28
2017-03-29T10:36:38.705Z,24
2017-03-29T10:37:38.205Z,20
2017-03-29T10:38:38.083Z,20
2017-03-29T10:39:38.181Z,24
2017-03-29T10:40:37.933Z,28
2017-03-29T10:41:37.883Z,28
2017-03-29T10:42:37.689Z,32
2017-03-29T10:43:37.621Z,32
2017-03-29T10:44:37.949Z,32
2017-03-29T10:45:37.502Z,24
2017-03-29T10:46:37.435Z,20
2017-03-29T10:47:37.750Z,16
2017-03-29T10:48:37.326Z,16
2017-03-29T10:49:37.250Z,16
2017-03-29T10:50:37.187Z,8
2017-03-29T10:51:37.123Z,12
2017-03-29T10:52:37.061Z,20
2017-03-29T10:53:37.009Z,24
2017-03-29T10:54:36.943Z,24
2017-03-29T10:55:36.876Z,20
2017-03-29T10:56:36.821Z,24
2017-03-29T10:57:36.788Z,24
2017-03-29T10:58:36.696Z,20
2017-03-29T10:59:36.328Z,20
2017-03-29T11:00:36.566Z,16
2017-03-29T11:01:36.503Z,16
2017-03-29T11:02:36.446Z,16
2017-03-29T11:03:36.388Z,16
2017-03-29T11:04:36.704Z,16
2017-03-29T11:05:35.949Z,20
2017-03-29T11:06:36.195Z,20
2017-03-29T11:07:36.149Z,16
2017-03-29T11:08:35.764Z,20
2017-03-29T11:09:36.011Z,20
2017-03-29T11:10:36.093Z,16
2017-03-29T11:11:35.887Z,20
2017-03-29T11:12:35.510Z,16
2017-03-29T11:13:35.451Z,16
2017-03-29T11:14:35.703Z,20
2017-03-29T11:15:35.325Z,12
2017-03-29T11:16:35.947Z,16
2017-03-29T11:17:35.509Z,16
2017-03-29T11:18:35.833Z,16
2017-03-29T11:19:35.383Z,16
2017-03-29T11:20:35.353Z,16
2017-03-29T11:21:35.272Z,20
2017-03-29T11:22:35.214Z,16
2017-03-29T11:23:35.157Z,16
2017-03-29T11:24:35.462Z,20
2017-03-29T11:25:35.010Z,20
2017-03-29T11:26:34.952Z,16
2017-03-29T11:27:34.581Z,20
2017-03-29T11:28:34.517Z,16
2017-03-29T11:29:34.775Z,16
2017-03-29T11:30:35.077Z,16
2017-03-29T11:31:34.646Z,16
2017-03-29T11:32:34.580Z,16
2017-03-29T11:33:34.263Z,16
2017-03-29T11:34:34.501Z,16
2017-03-29T11:35:34.409Z,16
2017-03-29T11:36:34.385Z,20
2017-03-29T11:37:34.377Z,20
2017-03-29T11:38:34.297Z,20
2017-03-29T11:39:33.851Z,20
2017-03-29T11:40:34.136Z,20
2017-03-29T11:41:34.051Z,20
2017-03-29T11:42:33.994Z,20
2017-03-29T11:43:33.907Z,20
2017-03-29T11:44:33.845Z,20
2017-03-29T11:45:33.462Z,20
2017-03-29T11:46:33.719Z,20
2017-03-29T11:47:33.726Z,20
2017-03-29T11:48:33.651Z,20
2017-03-29T11:49:33.749Z,20
2017-03-29T11:50:33.465Z,20
2017-03-29T11:51:33.403Z,20
2017-03-29T11:52:33.028Z,20
2017-03-29T11:53:33.306Z,20
2017-03-29T11:54:33.332Z,20
2017-03-29T11:55:33.156Z,20
2017-03-29T11:56:33.089Z,20
2017-03-29T11:57:33.108Z,20
2017-03-29T11:58:32.658Z,20
2017-03-29T11:59:33.289Z,20
2017-03-29T12:00:32.625Z,20
2017-03-29T12:01:32.781Z,24
2017-03-29T12:02:32.733Z,20
2017-03-29T12:03:32.659Z,20
2017-03-29T12:04:32.284Z,20
2017-03-29T12:05:32.232Z,16
2017-03-29T12:06:32.468Z,16
2017-03-29T12:07:32.419Z,16
2017-03-29T12:08:32.039Z,8
2017-03-29T12:09:32.279Z,12
2017-03-29T12:10:31.914Z,8
2017-03-29T12:11:31.543Z,8
2017-03-29T12:12:32.110Z,12
2017-03-29T12:13:32.264Z,12
2017-03-29T12:14:31.661Z,12
2017-03-29T12:15:31.599Z,16
2017-03-29T12:16:31.546Z,12
2017-03-29T12:17:31.797Z,16
2017-03-29T12:18:31.418Z,16
2017-03-29T12:19:31.666Z,16
2017-03-29T12:20:31.954Z,12
2017-03-29T12:21:30.920Z,12
2017-03-29T12:22:31.483Z,8
2017-03-29T12:23:31.420Z,8
2017-03-29T12:24:31.350Z,8
2017-03-29T12:25:31.287Z,12
2017-03-29T12:26:30.629Z,12
2017-03-29T12:27:31.181Z,12
2017-03-29T12:28:30.806Z,12
2017-03-29T12:29:31.436Z,12
2017-03-29T12:30:30.978Z,12
2017-03-29T12:31:30.615Z,12
2017-03-29T12:32:30.548Z,12
2017-03-29T12:33:30.544Z,8
2017-03-29T12:34:30.731Z,12
2017-03-29T12:35:30.432Z,12
2017-03-29T12:36:30.294Z,12
2017-03-29T12:37:30.549Z,12
2017-03-29T12:38:30.484Z,8
2017-03-29T12:39:30.424Z,12
2017-03-29T12:40:30.360Z,8
2017-03-29T12:41:29.989Z,8
2017-03-29T12:42:30.237Z,8
2017-03-29T12:43:30.184Z,8
2017-03-29T12:44:29.818Z,16
2017-03-29T12:45:29.743Z,20
2017-03-29T12:46:29.679Z,16
2017-03-29T12:47:30.296Z,16
2017-03-29T12:48:29.861Z,12
2017-03-29T12:49:29.493Z,12
2017-03-29T12:50:29.775Z,12
2017-03-29T12:51:29.679Z,16
2017-03-29T12:52:29.612Z,16
2017-03-29T12:53:29.552Z,16
2017-03-29T12:54:29.493Z,16
2017-03-29T12:55:29.580Z,16
2017-03-29T12:56:29.367Z,16
2017-03-29T12:57:28.698Z,16
2017-03-29T12:58:29.252Z,16
2017-03-29T12:59:29.188Z,12
2017-03-29T13:00:28.808Z,12
2017-03-29T13:01:29.080Z,12
2017-03-29T13:02:28.993Z,12
2017-03-29T13:03:28.938Z,12
2017-03-29T13:04:28.874Z,8
2017-03-29T13:05:28.807Z,12
2017-03-29T13:06:28.439Z,8
2017-03-29T13:07:28.377Z,8
2017-03-29T13:08:28.627Z,12
2017-03-29T13:09:28.555Z,12
2017-03-29T13:10:28.496Z,8
2017-03-29T13:11:28.128Z,8
2017-03-29T13:12:28.381Z,8
2017-03-29T13:13:28.000Z,12
2017-03-29T13:14:28.254Z,8
2017-03-29T13:15:28.197Z,8
2017-03-29T13:16:28.134Z,8
2017-03-29T13:17:28.066Z,8
2017-03-29T13:18:28.004Z,8
2017-03-29T13:19:27.641Z,8
2017-03-29T13:20:27.876Z,8
2017-03-29T13:21:27.827Z,8
2017-03-29T13:22:28.126Z,8
2017-03-29T13:23:27.394Z,8
2017-03-29T13:24:27.644Z,8
2017-03-29T13:25:27.571Z,8
2017-03-29T13:26:27.206Z,8
2017-03-29T13:27:27.442Z,8
2017-03-29T13:28:27.077Z,8
2017-03-29T13:29:27.014Z,8
2017-03-29T13:30:27.134Z,8
2017-03-29T13:31:26.895Z,8
2017-03-29T13:32:26.840Z,8
2017-03-29T13:33:27.306Z,8
2017-03-29T13:34:27.051Z,8
2017-03-29T13:35:26.639Z,8
2017-03-29T13:36:26.583Z,8
2017-03-29T13:37:26.513Z,8
2017-03-29T13:38:26.450Z,8
2017-03-29T13:39:26.398Z,12
2017-03-29T13:40:26.333Z,8
2017-03-29T13:41:25.959Z,12
2017-03-29T13:42:26.516Z,12
2017-03-29T13:43:26.460Z,12
2017-03-29T13:44:26.447Z,12
2017-03-29T13:45:26.334Z,12
2017-03-29T13:46:25.956Z,12
2017-03-29T13:47:26.257Z,8
2017-03-29T13:48:25.843Z,12
2017-03-29T13:49:26.082Z,12
2017-03-29T13:50:26.020Z,12
2017-03-29T13:51:25.961Z,12
2017-03-29T13:52:25.588Z,12
2017-03-29T13:53:26.207Z,12
2017-03-29T13:54:25.771Z,12
2017-03-29T13:55:25.710Z,12
2017-03-29T13:56:25.345Z,12
2017-03-29T13:57:25.583Z,8
2017-03-29T13:58:25.525Z,12
2017-03-29T13:59:25.459Z,8
2017-03-29T14:00:25.400Z,12
2017-03-29T14:01:25.341Z,12
2017-03-29T14:02:25.272Z,12
2017-03-29T14:03:25.214Z,12
2017-03-29T14:04:24.852Z,12
2017-03-29T14:05:24.778Z,8
2017-03-29T14:06:25.029Z,12
2017-03-29T14:07:24.658Z,12
2017-03-29T14:08:24.592Z,16
2017-03-29T14:09:24.533Z,16
2017-03-29T14:10:24.470Z,12
2017-03-29T14:11:24.715Z,16
2017-03-29T14:12:24.656Z,16
2017-03-29T14:13:24.595Z,12
2017-03-29T14:14:24.539Z,16
2017-03-29T14:15:24.472Z,16
2017-03-29T14:16:24.100Z,16
2017-03-29T14:17:23.727Z,16
2017-03-29T14:18:24.282Z,16
2017-03-29T14:19:24.215Z,16
2017-03-29T14:20:24.165Z,12
2017-03-29T14:21:24.099Z,12
2017-03-29T14:22:24.044Z,16
2017-03-29T14:23:23.971Z,16
2017-03-29T14:24:23.911Z,16
2017-03-29T14:25:23.847Z,20
2017-03-29T14:26:23.477Z,16
2017-03-29T14:27:23.420Z,16
2017-03-29T14:28:23.664Z,16